createdAt,value
2023-05-22T00:00:06.148Z,4
2023-05-22T00:04:02.381Z,6
2023-05-22T00:06:01.965Z,6
2023-05-22T00:08:01.717Z,6
2023-05-22T00:10:02.492Z,6
2023-05-22T00:12:02.089Z,6
2023-05-22T00:14:01.762Z,3
2023-05-22T00:16:02.439Z,3
2023-05-22T00:18:02.031Z,3
2023-05-22T00:20:01.717Z,6
2023-05-22T00:22:02.219Z,6
2023-05-22T00:24:01.868Z,6
2023-05-22T00:26:02.437Z,4
2023-05-22T00:28:02.136Z,4
2023-05-22T00:30:01.966Z,4
2023-05-22T00:32:02.459Z,4
2023-05-22T00:34:02.166Z,4
2023-05-22T00:36:01.804Z,4
2023-05-22T00:38:02.474Z,3
2023-05-22T00:40:02.268Z,3
2023-05-22T00:42:01.632Z,3
2023-05-22T00:44:02.257Z,4
2023-05-22T00:46:01.795Z,4
2023-05-22T00:48:02.390Z,4
2023-05-22T00:50:02.313Z,4
2023-05-22T00:52:01.819Z,4
2023-05-22T00:54:02.392Z,4
2023-05-22T00:56:01.893Z,4
2023-05-22T00:58:01.488Z,4
2023-05-22T01:00:05.463Z,4
2023-05-22T01:04:02.454Z,4
2023-05-22T01:06:01.857Z,4
2023-05-22T01:08:02.452Z,6
2023-05-22T01:10:02.242Z,6
2023-05-22T01:12:01.637Z,6
2023-05-22T01:14:02.197Z,6
2023-05-22T01:16:01.897Z,6
2023-05-22T01:18:02.274Z,6
2023-05-22T01:20:02.043Z,4
2023-05-22T01:22:02.450Z,4
2023-05-22T01:24:02.093Z,4
2023-05-22T01:26:01.602Z,4
2023-05-22T01:28:02.068Z,4
2023-05-22T01:30:01.801Z,4
2023-05-22T01:32:02.326Z,4
2023-05-22T01:34:01.833Z,4
2023-05-22T01:36:02.259Z,4
2023-05-22T01:38:01.845Z,4
2023-05-22T01:40:02.526Z,4
2023-05-22T01:42:01.953Z,4
2023-05-22T01:44:01.571Z,4
2023-05-22T01:46:02.145Z,4
2023-05-22T01:48:01.555Z,4
2023-05-22T01:50:02.317Z,4
2023-05-22T01:52:01.850Z,4
2023-05-22T01:54:02.421Z,4
2023-05-22T01:56:01.830Z,4
2023-05-22T01:58:01.550Z,6
2023-05-22T02:00:05.636Z,6
2023-05-22T02:04:02.253Z,6
2023-05-22T02:06:01.876Z,6
2023-05-22T02:08:02.271Z,6
2023-05-22T02:10:01.997Z,6
2023-05-22T02:12:01.548Z,6
2023-05-22T02:14:01.988Z,6
2023-05-22T02:16:01.619Z,6
2023-05-22T02:18:02.256Z,6
2023-05-22T02:20:01.842Z,6
2023-05-22T02:22:02.218Z,4
2023-05-22T02:24:01.732Z,4
2023-05-22T02:26:02.403Z,4
2023-05-22T02:28:02.139Z,6
2023-05-22T02:30:01.821Z,6
2023-05-22T02:32:02.372Z,6
2023-05-22T02:34:01.941Z,7
2023-05-22T02:36:02.470Z,7
2023-05-22T02:38:02.043Z,7
2023-05-22T02:40:01.839Z,6
2023-05-22T02:42:02.402Z,6
2023-05-22T02:44:01.967Z,6
2023-05-22T02:46:01.570Z,6
2023-05-22T02:48:02.069Z,6
2023-05-22T02:50:01.748Z,6
2023-05-22T02:52:02.171Z,4
2023-05-22T02:54:01.922Z,4
2023-05-22T02:56:01.669Z,4
2023-05-22T02:58:01.949Z,6
2023-05-22T03:00:06.149Z,6
2023-05-22T03:04:01.838Z,6
2023-05-22T03:06:02.321Z,6
2023-05-22T03:08:01.993Z,6
2023-05-22T03:10:01.684Z,4
2023-05-22T03:12:01.956Z,4
2023-05-22T03:14:01.654Z,4
2023-05-22T03:16:02.334Z,6
2023-05-22T03:18:02.074Z,6
2023-05-22T03:22:02.158Z,6
2023-05-22T03:24:01.676Z,6
2023-05-22T03:26:02.189Z,6
2023-05-22T03:28:01.771Z,7
2023-05-22T03:30:01.699Z,7
2023-05-22T03:32:02.138Z,7
2023-05-22T03:34:01.849Z,7
2023-05-22T03:36:02.411Z,7
2023-05-22T03:38:02.302Z,7
2023-05-22T03:40:02.149Z,6
2023-05-22T03:42:01.655Z,6
2023-05-22T03:44:02.232Z,6
2023-05-22T03:46:01.889Z,7
2023-05-22T03:48:02.456Z,7
2023-05-22T03:50:02.253Z,7
2023-05-22T03:52:01.760Z,6
2023-05-22T03:54:02.392Z,6
2023-05-22T03:56:01.873Z,6
2023-05-22T03:58:02.382Z,4
2023-05-22T04:00:05.869Z,4
2023-05-22T04:04:02.201Z,6
2023-05-22T04:06:01.852Z,6
2023-05-22T04:08:02.444Z,6
2023-05-22T04:10:02.274Z,6
2023-05-22T04:12:01.811Z,6
2023-05-22T04:14:02.427Z,6
2023-05-22T04:16:01.974Z,4
2023-05-22T04:18:02.394Z,4
2023-05-22T04:20:02.113Z,4
2023-05-22T04:22:01.655Z,6
2023-05-22T04:24:02.297Z,6
2023-05-22T04:26:01.912Z,6
2023-05-22T04:28:02.356Z,6
2023-05-22T04:30:02.083Z,6
2023-05-22T04:32:01.592Z,6
2023-05-22T04:34:02.313Z,6
2023-05-22T04:36:01.852Z,6
2023-05-22T04:38:01.519Z,6
2023-05-22T04:40:02.424Z,6
2023-05-22T04:42:01.780Z,6
2023-05-22T04:44:02.281Z,6
2023-05-22T04:46:01.882Z,6
2023-05-22T04:48:01.564Z,6
2023-05-22T04:50:02.333Z,6
2023-05-22T04:52:01.806Z,6
2023-05-22T04:54:02.524Z,6
2023-05-22T04:56:02.004Z,6
2023-05-22T04:58:02.400Z,7
2023-05-22T05:00:05.526Z,7
2023-05-22T05:04:02.346Z,6
2023-05-22T05:06:01.858Z,6
2023-05-22T05:08:01.599Z,6
2023-05-22T05:10:02.322Z,4
2023-05-22T05:12:01.836Z,4
2023-05-22T05:14:02.426Z,4
2023-05-22T05:16:02.175Z,4
2023-05-22T05:18:01.778Z,4
2023-05-22T05:20:02.640Z,4
2023-05-22T05:22:02.078Z,7
2023-05-22T05:24:01.846Z,7
2023-05-22T05:26:02.372Z,7
2023-05-22T05:28:01.972Z,4
2023-05-22T05:30:01.811Z,4
2023-05-22T05:32:02.232Z,4
2023-05-22T05:34:01.780Z,6
2023-05-22T05:36:02.247Z,6
2023-05-22T05:38:02.002Z,6
2023-05-22T05:40:02.613Z,6
2023-05-22T05:42:02.064Z,6
2023-05-22T05:44:01.680Z,6
2023-05-22T05:46:02.225Z,7
2023-05-22T05:48:09.144Z,7
2023-05-22T05:50:02.509Z,7
2023-05-22T05:52:01.796Z,7
2023-05-22T05:54:02.316Z,7
2023-05-22T05:56:01.897Z,7
2023-05-22T05:58:02.410Z,6
2023-05-22T06:00:05.198Z,6
2023-05-22T06:06:01.782Z,7
2023-05-22T06:08:02.277Z,7
2023-05-22T06:10:02.012Z,6
2023-05-22T06:12:01.642Z,6
2023-05-22T06:14:02.004Z,6
2023-05-22T06:16:04.994Z,7
2023-05-22T06:20:02.046Z,7
2023-05-22T06:22:02.479Z,10
2023-05-22T06:24:02.292Z,10
2023-05-22T06:26:01.846Z,10
2023-05-22T06:28:02.277Z,6
2023-05-22T06:30:01.930Z,6
2023-05-22T06:32:02.520Z,6
2023-05-22T06:34:01.927Z,9
2023-05-22T06:36:02.325Z,9
2023-05-22T06:38:01.915Z,9
2023-05-22T06:40:02.632Z,9
2023-05-22T06:42:01.835Z,9
2023-05-22T06:44:02.427Z,9
2023-05-22T06:46:02.125Z,9
2023-05-22T06:48:01.751Z,9
2023-05-22T06:50:02.376Z,9
2023-05-22T06:52:03.943Z,10
2023-05-22T06:56:02.163Z,10
2023-05-22T06:58:01.615Z,9
2023-05-22T07:00:07.258Z,9
2023-05-22T07:02:01.769Z,9
2023-05-22T07:04:02.240Z,9
2023-05-22T07:06:01.680Z,9
2023-05-22T07:08:02.262Z,9
2023-05-22T07:10:01.804Z,9
2023-05-22T07:12:02.248Z,9
2023-05-22T07:14:01.918Z,9
2023-05-22T07:16:02.521Z,7
2023-05-22T07:18:02.198Z,7
2023-05-22T07:20:01.890Z,7
2023-05-22T07:22:02.287Z,7
2023-05-22T07:24:01.721Z,7
2023-05-22T07:26:02.290Z,7
2023-05-22T07:28:01.973Z,7
2023-05-22T07:30:02.683Z,7
2023-05-22T07:32:02.301Z,7
2023-05-22T07:34:01.619Z,9
2023-05-22T07:36:02.137Z,9
2023-05-22T07:38:01.655Z,9
2023-05-22T07:40:02.281Z,7
2023-05-22T07:42:02.151Z,7
2023-05-22T07:44:02.372Z,7
2023-05-22T07:46:01.958Z,9
2023-05-22T07:48:02.530Z,9
2023-05-22T07:50:02.347Z,9
2023-05-22T07:52:01.918Z,10
2023-05-22T07:54:02.348Z,10
2023-05-22T07:56:01.990Z,10
2023-05-22T07:58:01.552Z,6
2023-05-22T08:00:04.772Z,6
2023-05-22T08:04:01.811Z,8
2023-05-22T08:06:01.944Z,8
2023-05-22T08:08:02.273Z,8
2023-05-22T08:10:02.083Z,7
2023-05-22T08:12:01.590Z,7
2023-05-22T08:14:02.116Z,7
2023-05-22T08:16:01.861Z,7
2023-05-22T08:18:02.365Z,7
2023-05-22T08:20:02.437Z,7
2023-05-22T08:22:02.422Z,10
2023-05-22T08:24:02.115Z,10
2023-05-22T08:26:01.822Z,10
2023-05-22T08:28:02.377Z,12
2023-05-22T08:30:02.119Z,12
2023-05-22T08:32:01.711Z,12
2023-05-22T08:34:02.120Z,10
2023-05-22T08:36:01.720Z,10
2023-05-22T08:38:02.251Z,10
2023-05-22T08:40:01.974Z,10
2023-05-22T08:42:02.286Z,10
2023-05-22T08:44:01.949Z,10
2023-05-22T08:46:02.460Z,9
2023-05-22T08:48:02.167Z,9
2023-05-22T08:50:01.798Z,9
2023-05-22T08:52:02.321Z,9
2023-05-22T08:54:01.893Z,9
2023-05-22T08:56:02.402Z,9
2023-05-22T08:58:01.929Z,9
2023-05-22T09:00:05.716Z,9
2023-05-22T09:04:01.938Z,9
2023-05-22T09:06:01.613Z,9
2023-05-22T09:08:15.923Z,9
2023-05-22T09:10:01.870Z,9
2023-05-22T09:12:02.197Z,9
2023-05-22T09:14:02.006Z,9
2023-05-22T09:16:01.630Z,9
2023-05-22T09:18:02.183Z,9
2023-05-22T09:20:02.061Z,9
2023-05-22T09:22:01.593Z,9
2023-05-22T09:24:02.245Z,10
2023-05-22T09:26:01.695Z,10
2023-05-22T09:28:02.196Z,10
2023-05-22T09:30:01.906Z,8
2023-05-22T09:32:02.343Z,8
2023-05-22T09:34:01.940Z,8
2023-05-22T09:36:01.615Z,11
2023-05-22T09:38:02.065Z,11
2023-05-22T09:40:01.802Z,11
2023-05-22T09:42:02.099Z,8
2023-05-22T09:44:02.037Z,8
2023-05-22T09:46:02.589Z,8
2023-05-22T09:48:01.733Z,7
2023-05-22T09:50:02.493Z,8
2023-05-22T09:52:01.977Z,8
2023-05-22T09:54:02.465Z,13
2023-05-22T09:56:02.057Z,13
2023-05-22T09:58:02.411Z,13
2023-05-22T10:00:04.912Z,10
2023-05-22T10:04:02.624Z,10
2023-05-22T10:06:01.890Z,11
2023-05-22T10:08:02.466Z,11
2023-05-22T10:10:02.333Z,11
2023-05-22T10:12:01.540Z,8
2023-05-22T10:14:02.062Z,13
2023-05-22T10:16:02.870Z,13
2023-05-22T10:18:02.131Z,9
2023-05-22T10:20:01.760Z,10
2023-05-22T10:22:02.157Z,10
2023-05-22T10:24:01.772Z,8
2023-05-22T10:26:02.373Z,12
2023-05-22T10:28:02.167Z,12
2023-05-22T10:30:01.811Z,10
2023-05-22T10:32:02.380Z,10
2023-05-22T10:34:01.975Z,10
2023-05-22T10:36:02.328Z,8
2023-05-22T10:38:01.976Z,10
2023-05-22T10:40:02.611Z,10
2023-05-22T10:42:02.022Z,7
2023-05-22T10:44:01.530Z,11
2023-05-22T10:46:02.134Z,11
2023-05-22T10:48:01.659Z,9
2023-05-22T10:50:01.784Z,9
2023-05-22T10:52:02.162Z,9
2023-05-22T10:54:01.672Z,10
2023-05-22T10:56:02.020Z,10
2023-05-22T10:58:05.064Z,10
2023-05-22T11:00:05.819Z,9
2023-05-22T11:02:01.666Z,11
2023-05-22T11:04:02.232Z,11
2023-05-22T11:06:01.762Z,10
2023-05-22T11:08:02.336Z,14
2023-05-22T11:10:02.137Z,14
2023-05-22T11:12:01.604Z,7
2023-05-22T11:14:02.275Z,11
2023-05-22T11:16:01.792Z,11
2023-05-22T11:18:02.421Z,10
2023-05-22T11:20:02.330Z,12
2023-05-22T11:22:02.466Z,12
2023-05-22T11:24:02.001Z,12
2023-05-22T11:26:01.640Z,12
2023-05-22T11:30:01.813Z,10
2023-05-22T11:32:02.287Z,12
2023-05-22T11:34:01.924Z,12
2023-05-22T11:36:02.394Z,7
2023-05-22T11:38:02.085Z,10
2023-05-22T11:40:01.793Z,10
2023-05-22T11:42:02.103Z,10
2023-05-22T11:44:01.711Z,11
2023-05-22T11:46:02.214Z,11
2023-05-22T11:48:01.867Z,10
2023-05-22T11:50:02.423Z,11
2023-05-22T11:52:01.832Z,11
2023-05-22T11:54:02.256Z,9
2023-05-22T11:58:02.317Z,14
2023-05-22T12:00:07.724Z,9
2023-05-22T12:02:01.725Z,13
2023-05-22T12:04:02.240Z,13
2023-05-22T12:06:01.950Z,11
2023-05-22T12:10:02.080Z,10
2023-05-22T12:12:01.567Z,11
2023-05-22T12:14:02.217Z,12
2023-05-22T12:16:01.643Z,12
2023-05-22T12:18:02.232Z,11
2023-05-22T12:20:01.866Z,13
2023-05-22T12:22:02.214Z,13
2023-05-22T12:24:01.528Z,12
2023-05-22T12:26:02.257Z,10
2023-05-22T12:28:01.816Z,10
2023-05-22T12:30:02.702Z,9
2023-05-22T12:32:02.085Z,10
2023-05-22T12:34:01.674Z,10
2023-05-22T12:36:02.197Z,11
2023-05-22T12:38:01.631Z,12
2023-05-22T12:40:02.430Z,12
2023-05-22T12:42:01.903Z,14
2023-05-22T12:44:02.431Z,11
2023-05-22T12:46:02.988Z,11
2023-05-22T12:48:02.465Z,11
2023-05-22T12:50:02.358Z,13
2023-05-22T12:52:01.791Z,13
2023-05-22T12:54:01.570Z,10
2023-05-22T12:56:02.183Z,13
2023-05-22T12:58:01.859Z,13
2023-05-22T13:00:05.836Z,11
2023-05-22T13:04:01.724Z,10
2023-05-22T13:06:02.428Z,10
2023-05-22T13:08:01.851Z,12
2023-05-22T13:10:02.453Z,12
2023-05-22T13:12:02.000Z,7
2023-05-22T13:14:02.417Z,11
2023-05-22T13:16:02.124Z,11
2023-05-22T13:18:01.549Z,11
2023-05-22T13:20:02.200Z,12
2023-05-22T13:22:01.580Z,12
2023-05-22T13:24:02.103Z,10
2023-05-22T13:26:01.716Z,13
2023-05-22T13:28:02.157Z,13
2023-05-22T13:30:01.921Z,10
2023-05-22T13:32:02.279Z,12
2023-05-22T13:34:03.257Z,12
2023-05-22T13:38:02.152Z,14
2023-05-22T13:40:01.869Z,14
2023-05-22T13:42:02.419Z,10
2023-05-22T13:44:01.865Z,12
2023-05-22T13:46:02.447Z,12
2023-05-22T13:50:01.903Z,13
2023-05-22T13:52:02.283Z,13
2023-05-22T13:54:01.552Z,10
2023-05-22T13:56:02.097Z,12
2023-05-22T13:58:01.556Z,12
2023-05-22T14:00:05.603Z,10
2023-05-22T14:04:01.962Z,15
2023-05-22T14:06:01.576Z,9
2023-05-22T14:08:02.210Z,12
2023-05-22T14:10:01.942Z,12
2023-05-22T14:12:02.108Z,11
2023-05-22T14:14:01.535Z,14
2023-05-22T14:16:02.133Z,14
2023-05-22T14:18:01.662Z,12
2023-05-22T14:20:02.392Z,12
2023-05-22T14:22:01.915Z,12
2023-05-22T14:24:02.291Z,10
2023-05-22T14:26:01.857Z,11
2023-05-22T14:28:02.322Z,11
2023-05-22T14:30:02.067Z,11
2023-05-22T14:32:02.392Z,14
2023-05-22T14:34:01.919Z,14
2023-05-22T14:36:02.393Z,10
2023-05-22T14:38:01.819Z,13
2023-05-22T14:40:02.713Z,13
2023-05-22T14:42:02.277Z,10
2023-05-22T14:44:01.843Z,13
2023-05-22T14:46:02.419Z,13
2023-05-22T14:48:01.873Z,14
2023-05-22T14:50:18.212Z,13
2023-05-22T14:52:01.917Z,13
2023-05-22T14:54:02.268Z,11
2023-05-22T14:58:02.169Z,12
2023-05-22T15:00:05.159Z,11
2023-05-22T15:04:02.252Z,12
2023-05-22T15:06:01.806Z,11
2023-05-22T15:08:02.198Z,14
2023-05-22T15:10:01.816Z,14
2023-05-22T15:12:02.217Z,10
2023-05-22T15:14:01.687Z,11
2023-05-22T15:16:02.139Z,11
2023-05-22T15:18:01.752Z,11
2023-05-22T15:20:02.316Z,14
2023-05-22T15:22:18.271Z,14
2023-05-22T15:26:01.834Z,12
2023-05-22T15:28:02.396Z,12
2023-05-22T15:30:01.972Z,9
2023-05-22T15:32:02.332Z,13
2023-05-22T15:34:01.824Z,13
2023-05-22T15:36:02.336Z,12
2023-05-22T15:38:01.937Z,13
2023-05-22T15:40:02.577Z,13
2023-05-22T15:42:06.560Z,9
2023-05-22T15:46:02.022Z,11
2023-05-22T15:48:02.455Z,12
2023-05-22T15:50:02.298Z,13
2023-05-22T15:52:01.651Z,13
2023-05-22T15:54:02.156Z,10
2023-05-22T15:56:01.680Z,12
2023-05-22T15:58:02.187Z,12
2023-05-22T16:00:06.187Z,8
2023-05-22T16:02:02.198Z,13
2023-05-22T16:04:01.798Z,13
2023-05-22T16:06:01.640Z,11
2023-05-22T16:08:02.052Z,13
2023-05-22T16:10:01.812Z,13
2023-05-22T16:12:02.133Z,10
2023-05-22T16:14:01.657Z,13
2023-05-22T16:16:02.121Z,13
2023-05-22T16:18:01.650Z,11
2023-05-22T16:20:02.444Z,12
2023-05-22T16:22:01.832Z,12
2023-05-22T16:24:02.390Z,8
2023-05-22T16:26:01.960Z,11
2023-05-22T16:28:02.452Z,11
2023-05-22T16:30:02.368Z,12
2023-05-22T16:32:01.797Z,12
2023-05-22T16:34:02.306Z,12
2023-05-22T16:36:01.842Z,12
2023-05-22T16:38:02.321Z,19
2023-05-22T16:40:02.257Z,19
2023-05-22T16:42:02.445Z,18
2023-05-22T16:44:02.053Z,15
2023-05-22T16:46:01.557Z,15
2023-05-22T16:48:02.181Z,9
2023-05-22T16:50:02.795Z,11
2023-05-22T16:52:02.176Z,11
2023-05-22T16:54:01.651Z,9
2023-05-22T16:56:02.215Z,12
2023-05-22T16:58:01.703Z,12
2023-05-22T17:00:05.236Z,11
2023-05-22T17:04:02.352Z,13
2023-05-22T17:06:01.828Z,9
2023-05-22T17:08:02.244Z,10
2023-05-22T17:10:02.109Z,10
2023-05-22T17:12:02.332Z,10
2023-05-22T17:14:01.870Z,13
2023-05-22T17:16:02.382Z,13
2023-05-22T17:18:02.035Z,12
2023-05-22T17:20:01.781Z,14
2023-05-22T17:22:02.274Z,14
2023-05-22T17:24:01.931Z,12
2023-05-22T17:26:02.439Z,13
2023-05-22T17:28:01.853Z,13
2023-05-22T17:30:02.369Z,8
2023-05-22T17:32:01.772Z,12
2023-05-22T17:34:02.305Z,12
2023-05-22T17:36:01.821Z,10
2023-05-22T17:38:02.426Z,15
2023-05-22T17:40:02.234Z,15
2023-05-22T17:42:01.693Z,16
2023-05-22T17:44:02.105Z,11
2023-05-22T17:46:01.659Z,11
2023-05-22T17:48:02.152Z,10
2023-05-22T17:50:02.025Z,13
2023-05-22T17:52:01.493Z,13
2023-05-22T17:54:02.171Z,15
2023-05-22T17:56:01.729Z,12
2023-05-22T17:58:02.276Z,12
2023-05-22T18:00:06.089Z,9
2023-05-22T18:04:02.018Z,12
2023-05-22T18:06:01.546Z,8
2023-05-22T18:08:02.220Z,11
2023-05-22T18:10:02.085Z,11
2023-05-22T18:12:02.397Z,11
2023-05-22T18:14:01.936Z,11
2023-05-22T18:16:01.706Z,11
2023-05-22T18:18:02.087Z,11
2023-05-22T18:20:01.724Z,12
2023-05-22T18:22:02.245Z,12
2023-05-22T18:24:01.570Z,12
2023-05-22T18:26:02.099Z,15
2023-05-22T18:28:01.649Z,15
2023-05-22T18:30:02.563Z,8
2023-05-22T18:32:01.815Z,12
2023-05-22T18:34:01.537Z,12
2023-05-22T18:36:02.148Z,12
2023-05-22T18:38:01.774Z,11
2023-05-22T18:40:02.573Z,11
2023-05-22T18:42:01.943Z,9
2023-05-22T18:44:01.713Z,11
2023-05-22T18:46:02.119Z,11
2023-05-22T18:48:01.686Z,11
2023-05-22T18:50:02.354Z,16
2023-05-22T18:52:01.888Z,16
2023-05-22T18:54:01.580Z,10
2023-05-22T18:56:02.144Z,12
2023-05-22T18:58:01.744Z,12
2023-05-22T19:00:05.765Z,11
2023-05-22T19:04:02.305Z,11
2023-05-22T19:06:01.907Z,11
2023-05-22T19:08:01.542Z,15
2023-05-22T19:10:02.271Z,15
2023-05-22T19:12:01.786Z,11
2023-05-22T19:14:02.291Z,12
2023-05-22T19:16:01.861Z,12
2023-05-22T19:18:02.624Z,10
2023-05-22T19:20:02.498Z,15
2023-05-22T19:22:01.941Z,15
2023-05-22T19:24:02.369Z,10
2023-05-22T19:26:01.885Z,14
2023-05-22T19:28:02.391Z,14
2023-05-22T19:30:02.227Z,11
2023-05-22T19:32:01.651Z,14
2023-05-22T19:34:02.278Z,14
2023-05-22T19:36:01.944Z,8
2023-05-22T19:38:02.368Z,12
2023-05-22T19:40:01.870Z,12
2023-05-22T19:42:02.235Z,10
2023-05-22T19:44:01.876Z,14
2023-05-22T19:46:02.434Z,14
2023-05-22T19:48:01.941Z,11
2023-05-22T19:50:01.767Z,14
2023-05-22T19:52:02.176Z,14
2023-05-22T19:54:01.719Z,7
2023-05-22T19:56:02.252Z,12
2023-05-22T19:58:01.931Z,12
2023-05-22T20:00:06.094Z,11
2023-05-22T20:02:01.636Z,11
2023-05-22T20:04:02.311Z,11
2023-05-22T20:06:01.953Z,10
2023-05-22T20:08:02.416Z,9
2023-05-22T20:10:02.198Z,9
2023-05-22T20:12:01.631Z,7
2023-05-22T20:14:02.303Z,12
2023-05-22T20:16:01.883Z,12
2023-05-22T20:20:02.373Z,11
2023-05-22T20:22:01.753Z,11
2023-05-22T20:24:02.361Z,8
2023-05-22T20:26:01.767Z,12
2023-05-22T20:28:02.323Z,12
2023-05-22T20:30:02.000Z,14
2023-05-22T20:32:02.449Z,14
2023-05-22T20:34:02.046Z,14
2023-05-22T20:36:02.480Z,10
2023-05-22T20:38:01.952Z,12
2023-05-22T20:40:01.816Z,12
2023-05-22T20:42:02.185Z,11
2023-05-22T20:44:01.809Z,12
2023-05-22T20:46:02.485Z,12
2023-05-22T20:48:01.880Z,8
2023-05-22T20:50:02.497Z,11
2023-05-22T20:54:01.630Z,8
2023-05-22T20:56:02.202Z,14
2023-05-22T20:58:01.832Z,14
2023-05-22T21:00:05.222Z,10
2023-05-22T21:04:02.570Z,12
2023-05-22T21:06:02.002Z,11
2023-05-22T21:08:01.705Z,11
2023-05-22T21:10:02.441Z,11
2023-05-22T21:12:01.811Z,7
2023-05-22T21:14:02.458Z,12
2023-05-22T21:16:01.998Z,12
2023-05-22T21:20:02.410Z,12
2023-05-22T21:22:01.911Z,12
2023-05-22T21:24:02.426Z,10
2023-05-22T21:26:01.762Z,10
2023-05-22T21:28:02.394Z,10
2023-05-22T21:30:02.182Z,10
2023-05-22T21:32:01.634Z,11
2023-05-22T21:34:02.178Z,11
2023-05-22T21:36:01.659Z,8
2023-05-22T21:38:02.174Z,11
2023-05-22T21:40:01.886Z,11
2023-05-22T21:42:02.209Z,8
2023-05-22T21:44:01.808Z,11
2023-05-22T21:46:02.389Z,11
2023-05-22T21:48:01.967Z,7
2023-05-22T21:50:02.800Z,12
2023-05-22T21:52:01.783Z,12
2023-05-22T21:54:02.127Z,10
2023-05-22T21:56:01.727Z,12
2023-05-22T21:58:02.281Z,12
2023-05-22T22:00:02.313Z,7
2023-05-22T22:04:01.893Z,10
2023-05-22T22:06:02.275Z,7
2023-05-22T22:08:01.912Z,8
2023-05-22T22:10:01.716Z,8
2023-05-22T22:12:02.194Z,8
2023-05-22T22:14:01.730Z,9
2023-05-22T22:16:02.264Z,9
2023-05-22T22:18:01.822Z,10
2023-05-22T22:20:02.622Z,8
2023-05-22T22:22:02.098Z,8
2023-05-22T22:24:01.618Z,8
2023-05-22T22:26:02.121Z,8
2023-05-22T22:28:01.703Z,8
2023-05-22T22:30:02.327Z,8
2023-05-22T22:32:01.789Z,10
2023-05-22T22:34:02.428Z,10
2023-05-22T22:36:01.927Z,7
2023-05-22T22:38:01.510Z,11
2023-05-22T22:40:02.242Z,11
2023-05-22T22:42:02.515Z,8
2023-05-22T22:44:02.162Z,9
2023-05-22T22:46:01.827Z,9
2023-05-22T22:48:02.320Z,8
2023-05-22T22:50:01.987Z,11
2023-05-22T22:52:02.464Z,11
2023-05-22T22:54:01.922Z,8
2023-05-22T22:56:01.551Z,8
2023-05-22T22:58:02.088Z,8
2023-05-22T23:00:05.092Z,11
2023-05-22T23:04:02.185Z,7
2023-05-22T23:06:01.605Z,7
2023-05-22T23:08:02.306Z,11
2023-05-22T23:10:01.802Z,11
2023-05-22T23:12:02.001Z,8
2023-05-22T23:14:01.611Z,10
2023-05-22T23:16:02.229Z,10
2023-05-22T23:18:01.849Z,8
2023-05-22T23:20:02.627Z,12
2023-05-22T23:22:02.088Z,12
2023-05-22T23:24:01.665Z,10
2023-05-22T23:26:02.218Z,11
2023-05-22T23:28:01.719Z,11
2023-05-22T23:30:02.559Z,7
2023-05-22T23:32:01.791Z,8
2023-05-22T23:34:01.529Z,8
2023-05-22T23:36:02.150Z,10
2023-05-22T23:38:01.751Z,11
2023-05-22T23:40:02.421Z,11
2023-05-22T23:42:01.884Z,7
2023-05-22T23:44:01.473Z,11
2023-05-22T23:46:02.018Z,11
2023-05-22T23:48:01.714Z,10
2023-05-22T23:50:02.467Z,13
2023-05-22T23:52:02.030Z,13
2023-05-22T23:54:02.458Z,5
2023-05-22T23:56:01.992Z,10
2023-05-22T23:58:01.535Z,10
